sensor_id;sensor_type;location;lat;lon;timestamp;pressure;altitude;pressure_sealevel;temperature;humidity
33288;BME280;19657;50.452;30.372;2024-01-15T00:01:44;140198.72;;;-8.58;100.00
33288;BME280;19657;50.452;30.372;2024-01-15T00:04:30;140205.13;;;-8.56;100.00
33288;BME280;19657;50.452;30.372;2024-01-15T00:07:15;140212.77;;;-8.53;100.00
33288;BME280;19657;50.452;30.372;2024-01-15T00:10:01;140223.86;;;-8.48;100.00
33288;BME280;19657;50.452;30.372;2024-01-15T00:12:47;140239.88;;;-8.41;100.00
33288;BME280;19657;50.452;30.372;2024-01-15T00:15:32;140250.22;;;-8.37;100.00
33288;BME280;19657;50.452;30.372;2024-01-15T00:18:18;140254.63;;;-8.35;100.00
33288;BME280;19657;50.452;30.372;2024-01-15T00:21:04;140255.41;;;-8.35;100.00
33288;BME280;19657;50.452;30.372;2024-01-15T00:23:49;140236.69;;;-8.42;100.00
33288;BME280;19657;50.452;30.372;2024-01-15T00:26:34;140227.08;;;-8.46;100.00
33288;BME280;19657;50.452;30.372;2024-01-15T00:29:20;140228.78;;;-8.46;100.00
33288;BME280;19657;50.452;30.372;2024-01-15T00:32:05;140226.34;;;-8.47;100.00
33288;BME280;19657;50.452;30.372;2024-01-15T00:34:51;140222.38;;;-8.48;100.00
33288;BME280;19657;50.452;30.372;2024-01-15T00:37:37;140222.38;;;-8.48;100.00
33288;BME280;19657;50.452;30.372;2024-01-15T00:40:22;140217.94;;;-8.50;100.00
33288;BME280;19657;50.452;30.372;2024-01-15T00:43:08;140212.03;;;-8.53;100.00
33288;BME280;19657;50.452;30.372;2024-01-15T00:45:54;140204.14;;;-8.56;100.00
33288;BME280;19657;50.452;30.372;2024-01-15T00:48:39;140197.22;;;-8.59;100.00
33288;BME280;19657;50.452;30.372;2024-01-15T00:51:25;140201.92;;;-8.57;100.00
33288;BME280;19657;50.452;30.372;2024-01-15T00:54:11;140209.34;;;-8.54;100.00
33288;BME280;19657;50.452;30.372;2024-01-15T00:56:56;140203.89;;;-8.56;100.00
33288;BME280;19657;50.452;30.372;2024-01-15T00:59:42;140203.64;;;-8.57;100.00
33288;BME280;19657;50.452;30.372;2024-01-15T01:02:28;140209.80;;;-8.54;100.00
33288;BME280;19657;50.452;30.372;2024-01-15T01:05:13;140209.31;;;-8.54;100.00
33288;BME280;19657;50.452;30.372;2024-01-15T01:07:59;140207.36;;;-8.55;100.00
33288;BME280;19657;50.452;30.372;2024-01-15T01:10:45;140208.09;;;-8.55;100.00
33288;BME280;19657;50.452;30.372;2024-01-15T01:13:30;140210.55;;;-8.54;100.00
33288;BME280;19657;50.452;30.372;2024-01-15T01:16:16;140207.59;;;-8.55;100.00
33288;BME280;19657;50.452;30.372;2024-01-15T01:19:02;140194.53;;;-8.60;100.00
33288;BME280;19657;50.452;30.372;2024-01-15T01:21:48;140187.13;;;-8.63;100.00
33288;BME280;19657;50.452;30.372;2024-01-15T01:24:34;140179.23;;;-8.66;100.00
33288;BME280;19657;50.452;30.372;2024-01-15T01:27:20;140183.67;;;-8.64;100.00
33288;BME280;19657;50.452;30.372;2024-01-15T01:30:06;140193.30;;;-8.61;100.00
33288;BME280;19657;50.452;30.372;2024-01-15T01:32:51;140196.72;;;-8.59;100.00
33288;BME280;19657;50.452;30.372;2024-01-15T01:35:37;140186.64;;;-8.63;100.00
33288;BME280;19657;50.452;30.372;2024-01-15T01:38:23;140170.11;;;-8.70;100.00
33288;BME280;19657;50.452;30.372;2024-01-15T01:41:09;140163.47;;;-8.73;100.00
33288;BME280;19657;50.452;30.372;2024-01-15T01:43:56;140163.69;;;-8.73;100.00
33288;BME280;19657;50.452;30.372;2024-01-15T01:46:42;140162.22;;;-8.74;100.00
33288;BME280;19657;50.452;30.372;2024-01-15T01:49:29;140164.19;;;-8.73;100.00
33288;BME280;19657;50.452;30.372;2024-01-15T01:52:15;140162.97;;;-8.73;100.00
33288;BME280;19657;50.452;30.372;2024-01-15T01:55:02;140152.09;;;-8.78;100.00
33288;BME280;19657;50.452;30.372;2024-01-15T01:57:48;140142.97;;;-8.81;100.00
33288;BME280;19657;50.452;30.372;2024-01-15T02:00:36;140134.61;;;-8.85;100.00
33288;BME280;19657;50.452;30.372;2024-01-15T02:03:22;140121.28;;;-8.90;100.00
33288;BME280;19657;50.452;30.372;2024-01-15T02:06:07;140106.97;;;-8.97;100.00
33288;BME280;19657;50.452;30.372;2024-01-15T02:08:55;140099.86;;;-9.00;100.00
33288;BME280;19657;50.452;30.372;2024-01-15T02:11:41;140107.22;;;-8.97;100.00
33288;BME280;19657;50.452;30.372;2024-01-15T02:14:27;140104.06;;;-8.98;100.00
33288;BME280;19657;50.452;30.372;2024-01-15T02:17:12;140111.42;;;-8.94;100.00
33288;BME280;19657;50.452;30.372;2024-01-15T02:19:58;140113.64;;;-8.93;100.00
33288;BME280;19657;50.452;30.372;2024-01-15T02:22:44;140114.14;;;-8.93;100.00
33288;BME280;19657;50.452;30.372;2024-01-15T02:25:29;140104.03;;;-8.98;100.00
33288;BME280;19657;50.452;30.372;2024-01-15T02:28:16;140102.81;;;-8.98;100.00
33288;BME280;19657;50.452;30.372;2024-01-15T02:31:02;140104.30;;;-8.98;100.00
33288;BME280;19657;50.452;30.372;2024-01-15T02:33:48;140112.17;;;-8.94;100.00
33288;BME280;19657;50.452;30.372;2024-01-15T02:36:34;140123.03;;;-8.89;100.00
33288;BME280;19657;50.452;30.372;2024-01-15T02:39:19;140122.02;;;-8.90;100.00
33288;BME280;19657;50.452;30.372;2024-01-15T02:42:05;140124.50;;;-8.89;100.00
33288;BME280;19657;50.452;30.372;2024-01-15T02:44:51;140124.50;;;-8.89;100.00
33288;BME280;19657;50.452;30.372;2024-01-15T02:47:36;140123.02;;;-8.89;100.00
33288;BME280;19657;50.452;30.372;2024-01-15T02:50:22;140111.70;;;-8.94;100.00
33288;BME280;19657;50.452;30.372;2024-01-15T02:53:07;140109.95;;;-8.95;100.00
33288;BME280;19657;50.452;30.372;2024-01-15T02:55:53;140117.09;;;-8.92;100.00
33288;BME280;19657;50.452;30.372;2024-01-15T02:58:38;140122.27;;;-8.90;100.00
33288;BME280;19657;50.452;30.372;2024-01-15T03:01:23;140123.50;;;-8.89;100.00
33288;BME280;19657;50.452;30.372;2024-01-15T03:04:09;140120.53;;;-8.90;100.00
33288;BME280;19657;50.452;30.372;2024-01-15T03:06:55;140116.59;;;-8.92;100.00
33288;BME280;19657;50.452;30.372;2024-01-15T03:09:41;140114.14;;;-8.93;100.00
33288;BME280;19657;50.452;30.372;2024-01-15T03:12:26;140106.98;;;-8.97;100.00
33288;BME280;19657;50.452;30.372;2024-01-15T03:15:12;140102.55;;;-8.98;100.00
33288;BME280;19657;50.452;30.372;2024-01-15T03:17:58;140096.14;;;-9.01;100.00
33288;BME280;19657;50.452;30.372;2024-01-15T03:20:44;140099.61;;;-9.00;100.00
33288;BME280;19657;50.452;30.372;2024-01-15T03:23:30;140108.45;;;-8.96;100.00
33288;BME280;19657;50.452;30.372;2024-01-15T03:26:15;140112.41;;;-8.94;100.00
33288;BME280;19657;50.452;30.372;2024-01-15T03:29:01;140107.72;;;-8.96;100.00
33288;BME280;19657;50.452;30.372;2024-01-15T03:31:46;140100.34;;;-8.99;100.00
33288;BME280;19657;50.452;30.372;2024-01-15T03:34:32;140094.67;;;-9.02;100.00
33288;BME280;19657;50.452;30.372;2024-01-15T03:37:18;140088.53;;;-9.04;100.00
33288;BME280;19657;50.452;30.372;2024-01-15T03:40:04;140077.67;;;-9.09;100.00
33288;BME280;19657;50.452;30.372;2024-01-15T03:42:50;140059.20;;;-9.16;100.00
33288;BME280;19657;50.452;30.372;2024-01-15T03:45:36;140039.70;;;-9.24;100.00
33288;BME280;19657;50.452;30.372;2024-01-15T03:48:22;140018.03;;;-9.33;100.00
33288;BME280;19657;50.452;30.372;2024-01-15T03:51:07;140002.77;;;-9.40;100.00
33288;BME280;19657;50.452;30.372;2024-01-15T03:53:53;139990.92;;;-9.45;100.00
33288;BME280;19657;50.452;30.372;2024-01-15T03:56:39;139974.17;;;-9.52;100.00
33288;BME280;19657;50.452;30.372;2024-01-15T03:59:24;139955.70;;;-9.59;100.00
33288;BME280;19657;50.452;30.372;2024-01-15T04:02:10;139942.66;;;-9.65;100.00
33288;BME280;19657;50.452;30.372;2024-01-15T04:04:55;139930.80;;;-9.69;100.00
33288;BME280;19657;50.452;30.372;2024-01-15T04:07:41;139916.03;;;-9.75;100.00
33288;BME280;19657;50.452;30.372;2024-01-15T04:10:26;139899.78;;;-9.82;100.00
33288;BME280;19657;50.452;30.372;2024-01-15T04:13:12;139886.97;;;-9.88;100.00
33288;BME280;19657;50.452;30.372;2024-01-15T04:15:57;139879.84;;;-9.91;100.00
33288;BME280;19657;50.452;30.372;2024-01-15T04:18:43;139873.42;;;-9.93;100.00
33288;BME280;19657;50.452;30.372;2024-01-15T04:21:29;139873.92;;;-9.93;100.00
33288;BME280;19657;50.452;30.372;2024-01-15T04:24:14;139873.91;;;-9.93;100.00
33288;BME280;19657;50.452;30.372;2024-01-15T04:27:00;139874.41;;;-9.93;100.00
33288;BME280;19657;50.452;30.372;2024-01-15T04:29:46;139876.13;;;-9.92;100.00
33288;BME280;19657;50.452;30.372;2024-01-15T04:32:31;139874.42;;;-9.93;100.00
33288;BME280;19657;50.452;30.372;2024-01-15T04:35:17;139875.16;;;-9.93;100.00
33288;BME280;19657;50.452;30.372;2024-01-15T04:38:02;139879.34;;;-9.91;100.00
33288;BME280;19657;50.452;30.372;2024-01-15T04:40:48;139880.06;;;-9.91;100.00
33288;BME280;19657;50.452;30.372;2024-01-15T04:43:34;139879.34;;;-9.91;100.00
33288;BME280;19657;50.452;30.372;2024-01-15T04:46:19;139871.70;;;-9.94;100.00
33288;BME280;19657;50.452;30.372;2024-01-15T04:49:05;139857.16;;;-10.00;100.00
33288;BME280;19657;50.452;30.372;2024-01-15T04:51:50;139849.28;;;-10.03;100.00
33288;BME280;19657;50.452;30.372;2024-01-15T04:54:36;139848.80;;;-10.04;100.00
33288;BME280;19657;50.452;30.372;2024-01-15T04:57:22;139853.25;;;-10.02;100.00
33288;BME280;19657;50.452;30.372;2024-01-15T05:00:08;139867.77;;;-9.96;100.00
33288;BME280;19657;50.452;30.372;2024-01-15T05:02:53;139885.23;;;-9.89;100.00
33288;BME280;19657;50.452;30.372;2024-01-15T05:05:39;139891.67;;;-9.86;100.00
33288;BME280;19657;50.452;30.372;2024-01-15T05:08:25;139894.09;;;-9.85;100.00
33288;BME280;19657;50.452;30.372;2024-01-15T05:11:10;139894.59;;;-9.85;100.00
33288;BME280;19657;50.452;30.372;2024-01-15T05:13:56;139894.59;;;-9.85;100.00
33288;BME280;19657;50.452;30.372;2024-01-15T05:16:51;139897.83;;;-9.84;100.00
33288;BME280;19657;50.452;30.372;2024-01-15T05:19:37;139906.44;;;-9.79;100.00
33288;BME280;19657;50.452;30.372;2024-01-15T05:22:23;139910.36;;;-9.78;100.00
33288;BME280;19657;50.452;30.372;2024-01-15T05:25:09;139906.67;;;-9.79;100.00
33288;BME280;19657;50.452;30.372;2024-01-15T05:27:55;139896.09;;;-9.84;100.00
33288;BME280;19657;50.452;30.372;2024-01-15T05:30:41;139886.72;;;-9.88;100.00
33288;BME280;19657;50.452;30.372;2024-01-15T05:33:27;139875.64;;;-9.92;100.00
33288;BME280;19657;50.452;30.372;2024-01-15T05:36:13;139869.00;;;-9.95;100.00
33288;BME280;19657;50.452;30.372;2024-01-15T05:38:58;139866.80;;;-9.96;100.00
33288;BME280;19657;50.452;30.372;2024-01-15T05:41:43;139869.73;;;-9.95;100.00
33288;BME280;19657;50.452;30.372;2024-01-15T05:44:29;139877.86;;;-9.92;100.00
33288;BME280;19657;50.452;30.372;2024-01-15T05:47:15;139884.50;;;-9.89;100.00
33288;BME280;19657;50.452;30.372;2024-01-15T05:50:01;139895.34;;;-9.85;100.00
33288;BME280;19657;50.452;30.372;2024-01-15T05:52:48;139900.77;;;-9.82;100.00
33288;BME280;19657;50.452;30.372;2024-01-15T05:55:35;139902.98;;;-9.81;100.00
33288;BME280;19657;50.452;30.372;2024-01-15T05:58:21;139906.67;;;-9.79;100.00
33288;BME280;19657;50.452;30.372;2024-01-15T06:01:06;139904.47;;;-9.80;100.00
33288;BME280;19657;50.452;30.372;2024-01-15T06:03:53;139905.20;;;-9.80;100.00
33288;BME280;19657;50.452;30.372;2024-01-15T06:06:39;139914.30;;;-9.76;100.00
33288;BME280;19657;50.452;30.372;2024-01-15T06:09:25;139925.16;;;-9.72;100.00
33288;BME280;19657;50.452;30.372;2024-01-15T06:12:11;139936.48;;;-9.67;100.00
33288;BME280;19657;50.452;30.372;2024-01-15T06:14:57;139943.84;;;-9.64;100.00
33288;BME280;19657;50.452;30.372;2024-01-15T06:17:42;139948.78;;;-9.62;100.00
33288;BME280;19657;50.452;30.372;2024-01-15T06:20:28;139951.53;;;-9.61;100.00
33288;BME280;19657;50.452;30.372;2024-01-15T06:23:14;139953.25;;;-9.60;100.00
33288;BME280;19657;50.452;30.372;2024-01-15T06:26:01;139955.45;;;-9.59;100.00
33288;BME280;19657;50.452;30.372;2024-01-15T06:28:48;139960.13;;;-9.57;100.00
33288;BME280;19657;50.452;30.372;2024-01-15T06:31:34;139968.78;;;-9.54;100.00
33288;BME280;19657;50.452;30.372;2024-01-15T06:34:19;139978.84;;;-9.50;100.00
33288;BME280;19657;50.452;30.372;2024-01-15T06:37:05;139990.42;;;-9.45;100.00
33288;BME280;19657;50.452;30.372;2024-01-15T06:39:51;140001.78;;;-9.40;100.00
33288;BME280;19657;50.452;30.372;2024-01-15T06:42:37;140011.38;;;-9.36;100.00
33288;BME280;19657;50.452;30.372;2024-01-15T06:45:22;140012.11;;;-9.36;100.00
33288;BME280;19657;50.452;30.372;2024-01-15T06:48:08;140014.83;;;-9.34;100.00
33288;BME280;19657;50.452;30.372;2024-01-15T06:50:54;140016.81;;;-9.33;100.00
33288;BME280;19657;50.452;30.372;2024-01-15T06:53:39;140017.53;;;-9.33;100.00
33288;BME280;19657;50.452;30.372;2024-01-15T06:56:24;140025.91;;;-9.30;100.00
33288;BME280;19657;50.452;30.372;2024-01-15T06:59:10;140037.97;;;-9.25;100.00
33288;BME280;19657;50.452;30.372;2024-01-15T07:01:55;140051.78;;;-9.19;100.00
33288;BME280;19657;50.452;30.372;2024-01-15T07:04:41;140059.44;;;-9.16;100.00
33288;BME280;19657;50.452;30.372;2024-01-15T07:07:28;140059.17;;;-9.16;100.00
33288;BME280;19657;50.452;30.372;2024-01-15T07:10:16;140058.67;;;-9.16;100.00
33288;BME280;19657;50.452;30.372;2024-01-15T07:13:01;140062.88;;;-9.15;100.00
33288;BME280;19657;50.452;30.372;2024-01-15T07:15:47;140065.58;;;-9.13;100.00
33288;BME280;19657;50.452;30.372;2024-01-15T07:18:33;140065.84;;;-9.13;100.00
33288;BME280;19657;50.452;30.372;2024-01-15T07:21:19;140070.27;;;-9.11;100.00
33288;BME280;19657;50.452;30.372;2024-01-15T07:24:04;140070.53;;;-9.11;100.00
33288;BME280;19657;50.452;30.372;2024-01-15T07:26:50;140079.64;;;-9.08;100.00
33288;BME280;19657;50.452;30.372;2024-01-15T07:29:35;140087.53;;;-9.05;100.00
33288;BME280;19657;50.452;30.372;2024-01-15T07:32:22;140087.03;;;-9.05;100.00
33288;BME280;19657;50.452;30.372;2024-01-15T07:35:08;140082.09;;;-9.07;100.00
33288;BME280;19657;50.452;30.372;2024-01-15T07:37:55;140088.25;;;-9.04;100.00
33288;BME280;19657;50.452;30.372;2024-01-15T07:40:41;140095.41;;;-9.01;100.00
33288;BME280;19657;50.452;30.372;2024-01-15T07:43:26;140110.67;;;-8.95;100.00
33288;BME280;19657;50.452;30.372;2024-01-15T07:46:13;140128.20;;;-8.87;100.00
33288;BME280;19657;50.452;30.372;2024-01-15T07:48:59;140136.08;;;-8.84;100.00
33288;BME280;19657;50.452;30.372;2024-01-15T07:51:44;140141.28;;;-8.82;100.00
33288;BME280;19657;50.452;30.372;2024-01-15T07:54:32;140144.47;;;-8.81;100.00
33288;BME280;19657;50.452;30.372;2024-01-15T07:57:17;140148.41;;;-8.79;100.00
33288;BME280;19657;50.452;30.372;2024-01-15T08:00:04;140161.47;;;-8.74;100.00
33288;BME280;19657;50.452;30.372;2024-01-15T08:02:50;140179.97;;;-8.66;100.00
33288;BME280;19657;50.452;30.372;2024-01-15T08:05:36;140195.53;;;-8.60;100.00
33288;BME280;19657;50.452;30.372;2024-01-15T08:08:22;140204.38;;;-8.56;100.00
33288;BME280;19657;50.452;30.372;2024-01-15T08:11:08;140215.73;;;-8.51;100.00
33288;BME280;19657;50.452;30.372;2024-01-15T08:13:54;140217.20;;;-8.50;100.00
33288;BME280;19657;50.452;30.372;2024-01-15T08:16:39;140214.47;;;-8.52;100.00
33288;BME280;19657;50.452;30.372;2024-01-15T08:19:25;140212.03;;;-8.53;100.00
33288;BME280;19657;50.452;30.372;2024-01-15T08:22:11;140212.03;;;-8.53;100.00
33288;BME280;19657;50.452;30.372;2024-01-15T08:24:57;140216.97;;;-8.51;100.00
33288;BME280;19657;50.452;30.372;2024-01-15T08:27:43;140226.33;;;-8.47;100.00
33288;BME280;19657;50.452;30.372;2024-01-15T08:30:29;140235.45;;;-8.43;100.00
33288;BME280;19657;50.452;30.372;2024-01-15T08:33:14;140251.45;;;-8.36;100.00
33288;BME280;19657;50.452;30.372;2024-01-15T08:36:09;140259.58;;;-8.33;100.00
33288;BME280;19657;50.452;30.372;2024-01-15T08:38:55;140261.31;;;-8.33;100.00
33288;BME280;19657;50.452;30.372;2024-01-15T08:41:40;140265.50;;;-8.31;100.00
33288;BME280;19657;50.452;30.372;2024-01-15T08:44:26;140267.22;;;-8.30;100.00
33288;BME280;19657;50.452;30.372;2024-01-15T08:47:12;140267.70;;;-8.30;100.00
33288;BME280;19657;50.452;30.372;2024-01-15T08:49:58;140266.72;;;-8.30;100.00
33288;BME280;19657;50.452;30.372;2024-01-15T08:52:44;140264.25;;;-8.31;100.00
33288;BME280;19657;50.452;30.372;2024-01-15T08:55:32;140272.89;;;-8.27;100.00
33288;BME280;19657;50.452;30.372;2024-01-15T08:58:18;140274.13;;;-8.27;100.00
33288;BME280;19657;50.452;30.372;2024-01-15T09:01:04;140267.72;;;-8.30;100.00
33288;BME280;19657;50.452;30.372;2024-01-15T09:03:50;140276.83;;;-8.26;100.00
33288;BME280;19657;50.452;30.372;2024-01-15T09:06:36;140272.89;;;-8.27;100.00
33288;BME280;19657;50.452;30.372;2024-01-15T09:09:21;140275.34;;;-8.26;100.00
33288;BME280;19657;50.452;30.372;2024-01-15T09:12:08;140285.47;;;-8.22;100.00
33288;BME280;19657;50.452;30.372;2024-01-15T09:14:54;140295.34;;;-8.18;100.00
33288;BME280;19657;50.452;30.372;2024-01-15T09:17:39;140298.31;;;-8.17;100.00
33288;BME280;19657;50.452;30.372;2024-01-15T09:20:25;140298.56;;;-8.17;100.00
33288;BME280;19657;50.452;30.372;2024-01-15T09:23:12;140305.45;;;-8.14;100.00
33288;BME280;19657;50.452;30.372;2024-01-15T09:25:58;140309.63;;;-8.12;100.00
33288;BME280;19657;50.452;30.372;2024-01-15T09:28:44;140317.03;;;-8.09;100.00
33288;BME280;19657;50.452;30.372;2024-01-15T09:31:30;140334.33;;;-8.02;100.00
33288;BME280;19657;50.452;30.372;2024-01-15T09:34:17;140349.63;;;-7.96;100.00
33288;BME280;19657;50.452;30.372;2024-01-15T09:37:04;140371.09;;;-7.87;100.00
33288;BME280;19657;50.452;30.372;2024-01-15T09:39:50;140387.14;;;-7.80;100.00
33288;BME280;19657;50.452;30.372;2024-01-15T09:42:36;140394.53;;;-7.77;100.00
33288;BME280;19657;50.452;30.372;2024-01-15T09:45:23;140400.19;;;-7.75;100.00
33288;BME280;19657;50.452;30.372;2024-01-15T09:48:08;140403.66;;;-7.73;100.00
33288;BME280;19657;50.452;30.372;2024-01-15T09:50:57;140408.59;;;-7.71;100.00
33288;BME280;19657;50.452;30.372;2024-01-15T09:53:45;140415.28;;;-7.69;100.00
33288;BME280;19657;50.452;30.372;2024-01-15T09:56:32;140423.17;;;-7.65;100.00
33288;BME280;19657;50.452;30.372;2024-01-15T09:59:18;140436.25;;;-7.59;100.00
33288;BME280;19657;50.452;30.372;2024-01-15T10:02:05;140440.45;;;-7.58;100.00
33288;BME280;19657;50.452;30.372;2024-01-15T10:04:52;140441.91;;;-7.57;100.00
33288;BME280;19657;50.452;30.372;2024-01-15T10:07:39;140446.13;;;-7.55;92.77
33288;BME280;19657;50.452;30.372;2024-01-15T10:10:26;140445.63;;;-7.56;85.98
33288;BME280;19657;50.452;30.372;2024-01-15T10:13:11;140450.80;;;-7.54;85.63
33288;BME280;19657;50.452;30.372;2024-01-15T10:16:00;140455.23;;;-7.52;85.55
33288;BME280;19657;50.452;30.372;2024-01-15T10:18:49;140463.64;;;-7.48;85.51
33288;BME280;19657;50.452;30.372;2024-01-15T10:21:35;140468.08;;;-7.47;85.26
33288;BME280;19657;50.452;30.372;2024-01-15T10:24:22;140468.08;;;-7.47;84.91
33288;BME280;19657;50.452;30.372;2024-01-15T10:27:08;140473.52;;;-7.44;85.01
33288;BME280;19657;50.452;30.372;2024-01-15T10:29:59;140475.72;;;-7.43;84.90
33288;BME280;19657;50.452;30.372;2024-01-15T10:33:00;140477.45;;;-7.43;85.07
33288;BME280;19657;50.452;30.372;2024-01-15T10:35:47;140473.28;;;-7.45;84.69
33288;BME280;19657;50.452;30.372;2024-01-15T10:38:32;140466.84;;;-7.47;84.77
33288;BME280;19657;50.452;30.372;2024-01-15T10:41:19;140462.66;;;-7.49;84.48
33288;BME280;19657;50.452;30.372;2024-01-15T10:44:05;140452.03;;;-7.53;84.62
33288;BME280;19657;50.452;30.372;2024-01-15T10:46:51;140443.66;;;-7.57;84.77
33288;BME280;19657;50.452;30.372;2024-01-15T10:49:37;140434.52;;;-7.60;84.91
33288;BME280;19657;50.452;30.372;2024-01-15T10:52:23;140402.17;;;-7.74;84.98
33288;BME280;19657;50.452;30.372;2024-01-15T10:55:09;140390.58;;;-7.79;85.46
33288;BME280;19657;50.452;30.372;2024-01-15T10:58:03;140389.34;;;-7.79;85.57
33288;BME280;19657;50.452;30.372;2024-01-15T11:00:49;140373.55;;;-7.86;86.05
33288;BME280;19657;50.452;30.372;2024-01-15T11:03:36;140354.80;;;-7.93;86.44
33288;BME280;19657;50.452;30.372;2024-01-15T11:06:24;140343.70;;;-7.98;87.25
33288;BME280;19657;50.452;30.372;2024-01-15T11:09:10;140338.77;;;-8.00;87.32
33288;BME280;19657;50.452;30.372;2024-01-15T11:12:11;140339.75;;;-7.99;87.83
33288;BME280;19657;50.452;30.372;2024-01-15T11:15:03;140352.08;;;-7.95;88.05
33288;BME280;19657;50.452;30.372;2024-01-15T11:17:59;140362.92;;;-7.90;88.18
33288;BME280;19657;50.452;30.372;2024-01-15T11:24:01;140370.83;;;-7.87;88.60
33288;BME280;19657;50.452;30.372;2024-01-15T11:26:47;140375.28;;;-7.85;89.00
33288;BME280;19657;50.452;30.372;2024-01-15T11:29:35;140377.50;;;-7.84;88.69
33288;BME280;19657;50.452;30.372;2024-01-15T11:32:33;140373.31;;;-7.86;88.64
33288;BME280;19657;50.452;30.372;2024-01-15T11:35:19;140378.73;;;-7.84;88.41
33288;BME280;19657;50.452;30.372;2024-01-15T11:38:05;140383.44;;;-7.82;88.33
33288;BME280;19657;50.452;30.372;2024-01-15T11:40:52;140391.33;;;-7.78;88.04
33288;BME280;19657;50.452;30.372;2024-01-15T11:43:37;140399.22;;;-7.75;87.86
33288;BME280;19657;50.452;30.372;2024-01-15T11:46:26;140407.11;;;-7.72;87.79
33288;BME280;19657;50.452;30.372;2024-01-15T11:49:26;140416.25;;;-7.68;87.72
33288;BME280;19657;50.452;30.372;2024-01-15T11:52:18;140418.95;;;-7.67;87.49
33288;BME280;19657;50.452;30.372;2024-01-15T11:55:12;140408.11;;;-7.71;87.36
33288;BME280;19657;50.452;30.372;2024-01-15T11:58:01;140389.59;;;-7.79;87.75
33288;BME280;19657;50.452;30.372;2024-01-15T12:00:49;140368.38;;;-7.88;87.99
33288;BME280;19657;50.452;30.372;2024-01-15T12:03:36;140357.75;;;-7.92;88.11
33288;BME280;19657;50.452;30.372;2024-01-15T12:06:22;140354.81;;;-7.93;87.76
33288;BME280;19657;50.452;30.372;2024-01-15T12:09:08;140348.88;;;-7.96;87.54
33288;BME280;19657;50.452;30.372;2024-01-15T12:12:03;140340.72;;;-7.99;87.61
33288;BME280;19657;50.452;30.372;2024-01-15T12:14:53;140330.13;;;-8.04;87.58
33288;BME280;19657;50.452;30.372;2024-01-15T12:17:39;140322.47;;;-8.07;87.70
33288;BME280;19657;50.452;30.372;2024-01-15T12:20:26;140319.52;;;-8.08;88.21
33288;BME280;19657;50.452;30.372;2024-01-15T12:23:12;140307.17;;;-8.14;87.90
33288;BME280;19657;50.452;30.372;2024-01-15T12:25:59;140303.72;;;-8.15;88.21
33288;BME280;19657;50.452;30.372;2024-01-15T12:28:44;140303.98;;;-8.15;88.12
33288;BME280;19657;50.452;30.372;2024-01-15T12:31:30;140320.02;;;-8.08;88.15
33288;BME280;19657;50.452;30.372;2024-01-15T12:34:17;140358.75;;;-7.92;87.34
33288;BME280;19657;50.452;30.372;2024-01-15T12:37:03;140399.22;;;-7.75;85.97
33288;BME280;19657;50.452;30.372;2024-01-15T12:39:49;140425.63;;;-7.64;85.16
33288;BME280;19657;50.452;30.372;2024-01-15T12:42:36;140438.70;;;-7.58;85.01
33288;BME280;19657;50.452;30.372;2024-01-15T12:45:23;140440.92;;;-7.57;84.87
33288;BME280;19657;50.452;30.372;2024-01-15T12:48:09;140463.39;;;-7.48;84.22
33288;BME280;19657;50.452;30.372;2024-01-15T12:50:55;140479.69;;;-7.42;83.99
33288;BME280;19657;50.452;30.372;2024-01-15T12:53:41;140497.95;;;-7.34;83.27
33288;BME280;19657;50.452;30.372;2024-01-15T12:56:26;140477.70;;;-7.43;83.62
33288;BME280;19657;50.452;30.372;2024-01-15T12:59:13;140467.34;;;-7.47;83.06
33288;BME280;19657;50.452;30.372;2024-01-15T13:01:59;140477.45;;;-7.43;83.15
33288;BME280;19657;50.452;30.372;2024-01-15T13:04:44;140486.09;;;-7.39;83.15
33288;BME280;19657;50.452;30.372;2024-01-15T13:07:31;140491.03;;;-7.37;82.71
33288;BME280;19657;50.452;30.372;2024-01-15T13:10:17;140509.55;;;-7.29;82.43
33288;BME280;19657;50.452;30.372;2024-01-15T13:13:03;140507.56;;;-7.30;81.99
33288;BME280;19657;50.452;30.372;2024-01-15T13:15:49;140509.81;;;-7.29;82.28
33288;BME280;19657;50.452;30.372;2024-01-15T13:18:35;140559.42;;;-7.09;81.85
33288;BME280;19657;50.452;30.372;2024-01-15T13:21:22;140617.47;;;-6.85;80.50
33288;BME280;19657;50.452;30.372;2024-01-15T13:24:08;140598.45;;;-6.92;79.78
33288;BME280;19657;50.452;30.372;2024-01-15T13:26:54;140546.09;;;-7.14;80.04
33288;BME280;19657;50.452;30.372;2024-01-15T13:29:40;140520.19;;;-7.25;80.56
33288;BME280;19657;50.452;30.372;2024-01-15T13:32:28;140521.16;;;-7.25;80.46
33288;BME280;19657;50.452;30.372;2024-01-15T13:35:15;140502.91;;;-7.32;80.27
33288;BME280;19657;50.452;30.372;2024-01-15T13:38:01;140459.92;;;-7.50;80.64
33288;BME280;19657;50.452;30.372;2024-01-15T13:40:47;140400.47;;;-7.74;81.38
33288;BME280;19657;50.452;30.372;2024-01-15T13:43:33;140345.66;;;-7.97;82.25
33288;BME280;19657;50.452;30.372;2024-01-15T13:46:19;140296.58;;;-8.18;83.11
33288;BME280;19657;50.452;30.372;2024-01-15T13:49:05;140255.64;;;-8.35;84.15
33288;BME280;19657;50.452;30.372;2024-01-15T13:51:57;140233.72;;;-8.43;85.09
33288;BME280;19657;50.452;30.372;2024-01-15T13:54:43;140199.70;;;-8.58;85.56
33288;BME280;19657;50.452;30.372;2024-01-15T13:57:35;140163.20;;;-8.73;86.56
33288;BME280;19657;50.452;30.372;2024-01-15T14:00:21;140125.47;;;-8.89;87.45
33288;BME280;19657;50.452;30.372;2024-01-15T14:03:07;140089.48;;;-9.04;88.98
33288;BME280;19657;50.452;30.372;2024-01-15T14:05:54;140053.77;;;-9.18;89.76
33288;BME280;19657;50.452;30.372;2024-01-15T14:08:39;140020.50;;;-9.32;90.75
33288;BME280;19657;50.452;30.372;2024-01-15T14:11:25;139996.84;;;-9.42;92.49
33288;BME280;19657;50.452;30.372;2024-01-15T14:14:11;139973.42;;;-9.52;93.50